createdAt,value
2022-10-05T00:01:01.133Z,10.34
2022-10-05T00:03:33.563Z,10.30
2022-10-05T00:06:03.483Z,10.25
2022-10-05T00:08:41.482Z,10.26
2022-10-05T00:11:10.870Z,10.29
2022-10-05T00:13:40.590Z,10.24
2022-10-05T00:16:19.644Z,10.35
2022-10-05T00:18:54.584Z,10.32
2022-10-05T00:21:29.409Z,10.34
2022-10-05T00:23:58.207Z,10.34
2022-10-05T00:26:35.807Z,10.31
2022-10-05T00:29:18.744Z,10.32
2022-10-05T00:31:45.380Z,10.37
2022-10-05T00:34:12.018Z,10.40
2022-10-05T00:36:40.061Z,10.50
2022-10-05T00:39:09.216Z,10.46
2022-10-05T00:42:02.955Z,10.53
2022-10-05T00:45:01.643Z,10.58
2022-10-05T00:47:31.256Z,10.61
2022-10-05T00:50:05.980Z,10.58
2022-10-05T00:52:41.437Z,10.53
2022-10-05T00:55:19.515Z,10.63
2022-10-05T00:57:58.921Z,10.70
2022-10-05T01:00:27.264Z,10.70
2022-10-05T01:02:59.388Z,10.73
2022-10-05T01:05:40.546Z,10.73
2022-10-05T01:08:16.256Z,10.76
2022-10-05T01:10:56.026Z,10.75
2022-10-05T01:13:31.318Z,10.77
2022-10-05T01:16:17.115Z,10.75
2022-10-05T01:18:51.435Z,10.75
2022-10-05T01:21:18.341Z,10.80
2022-10-05T01:24:03.635Z,10.81
2022-10-05T01:26:45.107Z,10.83
2022-10-05T01:29:30.629Z,10.88
2022-10-05T01:32:19.283Z,10.82
2022-10-05T01:35:04.965Z,10.88
2022-10-05T01:37:49.532Z,10.89
2022-10-05T01:40:34.683Z,10.86
2022-10-05T01:43:25.057Z,10.89
2022-10-05T01:46:15.058Z,10.90
2022-10-05T01:48:50.912Z,10.87
2022-10-05T01:51:30.699Z,10.83
2022-10-05T01:54:03.666Z,10.88
2022-10-05T01:56:57.121Z,10.92
2022-10-05T01:59:42.002Z,10.99
2022-10-05T02:02:16.969Z,10.96
2022-10-05T02:05:03.900Z,11.01
2022-10-05T02:07:34.832Z,11.03
2022-10-05T02:10:09.035Z,10.92
2022-10-05T02:12:38.450Z,10.91
2022-10-05T02:15:15.257Z,11.00
2022-10-05T02:17:50.708Z,11.01
2022-10-05T02:20:31.496Z,10.99
2022-10-05T02:23:08.121Z,11.03
2022-10-05T02:25:43.666Z,10.99
2022-10-05T02:28:21.898Z,10.99
2022-10-05T02:31:07.752Z,11.01
2022-10-05T02:33:38.212Z,11.03
2022-10-05T02:36:10.884Z,11.10
2022-10-05T02:38:44.034Z,11.11
2022-10-05T02:41:25.783Z,11.12
2022-10-05T02:44:19.613Z,11.07
2022-10-05T02:47:02.706Z,10.99
2022-10-05T02:49:56.678Z,11.10
2022-10-05T02:53:12.580Z,11.13
2022-10-05T02:55:56.009Z,11.07
2022-10-05T02:58:30.928Z,11.00
2022-10-05T03:01:09.520Z,11.08
2022-10-05T03:03:49.482Z,11.07
2022-10-05T03:06:25.573Z,11.09
2022-10-05T03:09:09.471Z,11.05
2022-10-05T03:11:51.638Z,11.11
2022-10-05T03:14:48.629Z,11.00
2022-10-05T03:17:26.077Z,10.93
2022-10-05T03:20:30.944Z,11.00
2022-10-05T03:23:03.893Z,10.96
2022-10-05T03:25:48.406Z,10.95
2022-10-05T03:28:24.795Z,10.96
2022-10-05T03:31:06.114Z,10.95
2022-10-05T03:34:05.714Z,10.91
2022-10-05T03:36:57.241Z,10.91
2022-10-05T03:39:27.187Z,10.93
2022-10-05T03:42:17.998Z,10.89
2022-10-05T03:45:02.794Z,10.87
2022-10-05T03:47:51.543Z,10.82
2022-10-05T03:51:03.069Z,10.87
2022-10-05T03:54:01.339Z,10.84
2022-10-05T03:56:36.252Z,10.75
2022-10-05T03:59:20.713Z,10.72
2022-10-05T04:02:06.543Z,10.71
2022-10-05T04:04:42.611Z,10.74
2022-10-05T04:07:22.294Z,10.72
2022-10-05T04:09:55.868Z,10.68
2022-10-05T04:12:45.164Z,10.68
2022-10-05T04:15:20.696Z,10.73
2022-10-05T04:17:52.456Z,10.78
2022-10-05T04:20:48.986Z,10.71
2022-10-05T04:23:29.826Z,10.71
2022-10-05T04:26:04.434Z,10.65
2022-10-05T04:28:54.249Z,10.66
2022-10-05T04:31:38.691Z,10.65
2022-10-05T04:34:27.739Z,10.65
2022-10-05T04:37:06.358Z,10.72
2022-10-05T04:40:06.911Z,10.69
2022-10-05T04:42:47.965Z,10.68
2022-10-05T04:45:39.603Z,10.72
2022-10-05T04:48:34.590Z,10.70
2022-10-05T04:51:09.409Z,10.71
2022-10-05T04:53:54.318Z,10.73
2022-10-05T04:56:30.850Z,10.62
2022-10-05T04:59:00.218Z,10.71
2022-10-05T05:01:48.188Z,10.74
2022-10-05T05:04:35.929Z,10.76
2022-10-05T05:07:40.211Z,10.73
2022-10-05T05:10:38.922Z,10.72
2022-10-05T05:13:11.554Z,10.74
2022-10-05T05:15:51.624Z,10.69
2022-10-05T05:18:59.053Z,10.75
2022-10-05T05:21:28.671Z,10.75
2022-10-05T05:24:04.757Z,10.74
2022-10-05T05:26:47.141Z,10.69
2022-10-05T05:29:26.198Z,10.69
2022-10-05T05:32:08.658Z,10.70
2022-10-05T05:34:43.845Z,10.66
2022-10-05T05:37:32.566Z,10.65
2022-10-05T05:40:10.192Z,10.67
2022-10-05T05:42:49.458Z,10.70
2022-10-05T05:45:48.283Z,10.72
2022-10-05T05:48:33.330Z,10.65
2022-10-05T05:51:08.362Z,10.71
2022-10-05T05:53:41.705Z,10.69
2022-10-05T05:56:16.112Z,10.66
2022-10-05T05:58:42.707Z,10.57
2022-10-05T06:01:35.504Z,10.64
2022-10-05T06:04:11.987Z,10.68
2022-10-05T06:06:47.090Z,10.69
2022-10-05T06:09:22.842Z,10.72
2022-10-05T06:11:56.460Z,10.75
2022-10-05T06:14:34.178Z,10.70
2022-10-05T06:17:17.809Z,10.79
2022-10-05T06:19:50.609Z,10.82
2022-10-05T06:22:40.929Z,10.82
2022-10-05T06:25:13.800Z,10.83
2022-10-05T06:27:55.643Z,10.72
2022-10-05T06:30:26.863Z,10.81
2022-10-05T06:33:13.652Z,10.81
2022-10-05T06:35:57.760Z,10.87
2022-10-05T06:38:36.508Z,10.87
2022-10-05T06:41:24.076Z,10.89
2022-10-05T06:43:58.873Z,10.92
2022-10-05T06:46:34.037Z,10.72
2022-10-05T06:49:08.980Z,10.77
2022-10-05T06:51:38.436Z,10.74
2022-10-05T06:54:14.256Z,10.72
2022-10-05T06:56:46.392Z,10.81
2022-10-05T06:59:34.505Z,10.82
2022-10-05T07:02:16.254Z,10.92
2022-10-05T07:04:45.753Z,11.00
2022-10-05T07:07:34.692Z,10.96
2022-10-05T07:10:12.997Z,11.03
2022-10-05T07:12:47.068Z,11.01
2022-10-05T07:15:34.760Z,11.12
2022-10-05T07:18:25.533Z,11.04
2022-10-05T07:21:05.609Z,11.07
2022-10-05T07:23:53.453Z,11.03
2022-10-05T07:26:33.888Z,11.00
2022-10-05T07:29:14.891Z,11.24
2022-10-05T07:31:44.851Z,11.32
2022-10-05T07:34:20.882Z,11.40
2022-10-05T07:37:18.497Z,11.40
2022-10-05T07:40:01.132Z,11.44
2022-10-05T07:42:59.948Z,11.55
2022-10-05T07:45:47.639Z,11.54
2022-10-05T07:48:37.158Z,11.59
2022-10-05T07:51:08.632Z,11.70
2022-10-05T07:53:43.847Z,11.81
2022-10-05T07:56:49.790Z,11.88
2022-10-05T07:59:33.009Z,12.03
2022-10-05T08:02:23.832Z,12.21
2022-10-05T08:04:56.047Z,12.36
2022-10-05T08:10:16.673Z,12.30
2022-10-05T08:13:22.226Z,12.65
2022-10-05T08:15:54.029Z,12.81
2022-10-05T08:18:42.289Z,13.04
2022-10-05T08:21:16.955Z,12.98
2022-10-05T08:24:13.176Z,13.07
2022-10-05T08:27:02.205Z,12.97
2022-10-05T08:29:41.293Z,13.05
2022-10-05T08:32:22.756Z,12.88
2022-10-05T08:35:15.444Z,12.78
2022-10-05T08:37:46.254Z,12.92
2022-10-05T08:40:18.892Z,13.04
2022-10-05T08:42:58.836Z,13.01
2022-10-05T08:45:49.283Z,13.05
2022-10-05T08:48:18.923Z,13.21
2022-10-05T08:51:10.275Z,13.10
2022-10-05T08:54:07.202Z,13.26
2022-10-05T08:56:45.086Z,13.16
2022-10-05T08:59:45.821Z,13.20
2022-10-05T09:02:12.319Z,13.33
2022-10-05T09:04:41.856Z,13.35
2022-10-05T09:07:14.965Z,13.33
2022-10-05T09:10:33.970Z,13.41
2022-10-05T09:13:11.830Z,13.58
2022-10-05T09:15:41.147Z,13.65
2022-10-05T09:18:45.354Z,13.74
2022-10-05T09:21:43.147Z,13.72
2022-10-05T09:24:15.012Z,13.83
2022-10-05T09:26:41.500Z,13.93
2022-10-05T09:29:16.827Z,14.01
2022-10-05T09:32:20.373Z,14.04
2022-10-05T09:35:00.530Z,14.07
2022-10-05T09:37:50.616Z,14.05
2022-10-05T09:40:32.563Z,14.10
2022-10-05T09:43:14.238Z,14.26
2022-10-05T09:45:48.672Z,14.39
2022-10-05T09:48:46.093Z,14.35
2022-10-05T09:51:33.226Z,14.47
2022-10-05T09:54:14.985Z,14.59
2022-10-05T09:57:04.222Z,14.76
2022-10-05T09:59:52.653Z,14.79
2022-10-05T10:02:33.538Z,14.87
2022-10-05T10:05:26.320Z,14.87
2022-10-05T10:08:20.281Z,14.97
2022-10-05T10:10:52.475Z,15.17
2022-10-05T10:13:56.650Z,15.09
2022-10-05T10:16:41.345Z,15.19
2022-10-05T10:19:20.033Z,15.31
2022-10-05T10:22:24.064Z,15.50
2022-10-05T10:25:27.645Z,15.51
2022-10-05T10:28:13.295Z,15.59
2022-10-05T10:31:19.989Z,15.78
2022-10-05T10:33:58.592Z,15.84
2022-10-05T10:36:34.313Z,15.96
2022-10-05T10:39:06.710Z,16.14
2022-10-05T10:41:39.353Z,16.22
2022-10-05T10:44:30.606Z,16.15
2022-10-05T10:47:15.660Z,16.24
2022-10-05T10:50:11.639Z,16.33
2022-10-05T10:52:59.623Z,16.32
2022-10-05T10:55:34.517Z,16.46
2022-10-05T10:58:19.758Z,16.61
2022-10-05T11:01:23.650Z,16.75
2022-10-05T11:04:05.015Z,16.58
2022-10-05T11:06:52.786Z,16.73
2022-10-05T11:09:56.954Z,16.79
2022-10-05T11:12:54.449Z,16.84
2022-10-05T11:15:27.145Z,16.89
2022-10-05T11:17:56.325Z,17.00
2022-10-05T11:21:01.543Z,16.96
2022-10-05T11:23:38.964Z,16.98
2022-10-05T11:26:42.098Z,16.96
2022-10-05T11:29:17.877Z,17.19
2022-10-05T11:31:59.752Z,17.15
2022-10-05T11:34:35.000Z,17.27
2022-10-05T11:37:29.160Z,17.35
2022-10-05T11:40:20.954Z,17.46
2022-10-05T11:43:08.358Z,17.67
2022-10-05T11:45:58.096Z,17.57
2022-10-05T11:48:41.836Z,17.56
2022-10-05T11:51:29.524Z,17.63
2022-10-05T11:54:18.386Z,17.54
2022-10-05T11:56:54.672Z,17.51
2022-10-05T11:59:27.064Z,17.53
2022-10-05T12:02:10.824Z,17.67
2022-10-05T12:05:10.779Z,17.71
2022-10-05T12:07:43.045Z,17.81
2022-10-05T12:10:32.680Z,17.81
2022-10-05T12:13:05.320Z,18.02
2022-10-05T12:15:54.439Z,18.08
2022-10-05T12:18:44.170Z,18.26
2022-10-05T12:21:27.608Z,18.27
2022-10-05T12:24:04.999Z,18.33
2022-10-05T12:26:34.370Z,18.26
2022-10-05T12:29:35.776Z,18.41
2022-10-05T12:32:05.962Z,18.41
2022-10-05T12:34:47.321Z,18.54
2022-10-05T12:37:40.356Z,18.70
2022-10-05T12:40:17.551Z,18.75
2022-10-05T12:42:50.378Z,18.81
2022-10-05T12:45:34.970Z,18.67
2022-10-05T12:48:10.559Z,18.68
2022-10-05T12:50:46.446Z,18.80
2022-10-05T12:53:28.725Z,18.86
2022-10-05T12:56:08.567Z,18.88
2022-10-05T12:58:50.461Z,18.95
2022-10-05T13:01:38.385Z,18.93
2022-10-05T13:04:27.428Z,19.02
2022-10-05T13:07:29.217Z,19.25
2022-10-05T13:10:40.401Z,19.26
2022-10-05T13:13:24.842Z,19.29
2022-10-05T13:16:17.933Z,19.21
2022-10-05T13:19:01.385Z,19.18
2022-10-05T13:21:46.627Z,19.22
2022-10-05T13:24:18.438Z,19.35
2022-10-05T13:26:54.831Z,19.39
2022-10-05T13:29:34.739Z,19.46
2022-10-05T13:32:12.736Z,19.38
2022-10-05T13:35:00.090Z,19.46
2022-10-05T13:37:45.301Z,19.63
2022-10-05T13:40:33.259Z,19.62
2022-10-05T13:43:33.711Z,19.77
2022-10-05T13:46:12.593Z,19.75
2022-10-05T13:48:56.959Z,19.74
2022-10-05T13:51:36.384Z,19.79
2022-10-05T13:54:27.103Z,19.81
2022-10-05T13:57:18.479Z,19.81
2022-10-05T13:59:57.675Z,19.89
2022-10-05T14:02:32.844Z,19.68
2022-10-05T14:05:01.513Z,19.72
2022-10-05T14:07:39.081Z,19.57
2022-10-05T14:10:28.673Z,19.70
2022-10-05T14:12:55.685Z,19.76
2022-10-05T14:15:32.749Z,19.77
2022-10-05T14:17:59.328Z,19.90
2022-10-05T14:20:27.714Z,20.02
2022-10-05T14:23:01.108Z,19.97
2022-10-05T14:25:33.491Z,19.94
2022-10-05T14:28:02.004Z,20.03
2022-10-05T14:30:32.794Z,20.05
2022-10-05T14:33:05.423Z,20.06
2022-10-05T14:35:52.634Z,20.01
2022-10-05T14:38:22.529Z,20.08
2022-10-05T14:41:07.784Z,20.10
2022-10-05T14:43:34.778Z,20.03
2022-10-05T14:46:14.890Z,20.02
2022-10-05T14:48:44.021Z,20.08
2022-10-05T14:51:32.226Z,20.00
2022-10-05T14:54:01.029Z,20.15
2022-10-05T14:56:33.634Z,20.15
2022-10-05T14:59:06.310Z,20.08
2022-10-05T15:01:39.384Z,20.15
2022-10-05T15:04:30.410Z,20.07
2022-10-05T15:07:13.627Z,20.11
2022-10-05T15:10:27.049Z,20.13
2022-10-05T15:12:58.335Z,20.02
2022-10-05T15:15:43.624Z,20.05
2022-10-05T15:18:10.078Z,20.06
2022-10-05T15:21:06.332Z,19.98
2022-10-05T15:23:43.024Z,19.87
2022-10-05T15:26:30.662Z,19.87
2022-10-05T15:29:36.158Z,19.90
2022-10-05T15:32:24.289Z,19.78
2022-10-05T15:35:15.096Z,19.73
2022-10-05T15:37:43.592Z,19.79
2022-10-05T15:40:26.885Z,19.77
2022-10-05T15:43:03.359Z,19.72
2022-10-05T15:45:41.266Z,19.77
2022-10-05T15:48:07.908Z,19.68
2022-10-05T15:51:00.855Z,19.60
2022-10-05T15:53:51.680Z,19.60
2022-10-05T15:56:23.572Z,19.59
2022-10-05T15:58:57.468Z,19.59
2022-10-05T16:01:33.324Z,19.52
2022-10-05T16:04:36.482Z,19.50
2022-10-05T16:07:22.072Z,19.44
2022-10-05T16:09:52.057Z,19.40
2022-10-05T16:12:33.546Z,19.35
2022-10-05T16:15:17.665Z,19.30
2022-10-05T16:18:21.175Z,19.17
2022-10-05T16:20:53.595Z,19.04
2022-10-05T16:23:56.488Z,18.90
2022-10-05T16:26:44.760Z,18.77
2022-10-05T16:29:33.208Z,18.58
2022-10-05T16:32:14.846Z,18.46
2022-10-05T16:35:02.589Z,18.39
2022-10-05T16:37:56.224Z,18.24
2022-10-05T16:40:31.437Z,18.11
2022-10-05T16:43:03.995Z,17.97
2022-10-05T16:46:15.654Z,17.92
2022-10-05T16:48:52.632Z,17.71
2022-10-05T16:51:24.482Z,17.63
2022-10-05T16:54:19.168Z,17.49
2022-10-05T16:56:54.384Z,17.22
2022-10-05T16:59:38.458Z,17.25
2022-10-05T17:02:29.206Z,17.11
2022-10-05T17:05:23.129Z,16.92
2022-10-05T17:08:08.590Z,16.75
2022-10-05T17:10:37.195Z,16.67
2022-10-05T17:13:19.700Z,16.58
2022-10-05T17:16:13.302Z,16.30
2022-10-05T17:19:00.855Z,16.22
2022-10-05T17:21:37.063Z,16.12
2022-10-05T17:24:41.578Z,15.98
2022-10-05T17:27:19.716Z,15.87
2022-10-05T17:30:17.974Z,15.83
2022-10-05T17:33:03.329Z,15.84
2022-10-05T17:35:52.094Z,15.98
2022-10-05T17:38:22.241Z,15.96
2022-10-05T17:41:23.776Z,15.98
2022-10-05T17:44:21.327Z,15.88
2022-10-05T17:47:04.517Z,15.85
2022-10-05T17:50:15.568Z,15.75
2022-10-05T17:53:02.693Z,15.63
2022-10-05T17:55:34.744Z,15.42
2022-10-05T17:58:24.123Z,15.43
2022-10-05T18:00:56.794Z,15.40
2022-10-05T18:03:41.771Z,15.38
2022-10-05T18:06:26.454Z,15.39
2022-10-05T18:09:22.991Z,15.22
2022-10-05T18:12:17.876Z,15.21
2022-10-05T18:14:52.822Z,15.17
2022-10-05T18:17:46.300Z,15.07
2022-10-05T18:20:30.167Z,14.93
2022-10-05T18:23:02.857Z,14.88
2022-10-05T18:25:39.447Z,14.84
2022-10-05T18:28:28.198Z,14.99
2022-10-05T18:30:55.126Z,15.03
2022-10-05T18:33:57.546Z,14.92
2022-10-05T18:36:57.979Z,14.92
2022-10-05T18:39:35.886Z,14.95
2022-10-05T18:42:35.782Z,14.91
2022-10-05T18:45:27.440Z,14.85
2022-10-05T18:47:56.730Z,14.83
2022-10-05T18:50:31.977Z,14.77
2022-10-05T18:53:35.961Z,14.68
2022-10-05T18:56:16.724Z,14.57
2022-10-05T18:58:52.070Z,14.57
2022-10-05T19:01:30.774Z,14.48
2022-10-05T19:04:12.614Z,14.39
2022-10-05T19:07:10.486Z,14.32
2022-10-05T19:10:13.560Z,14.16
2022-10-05T19:12:56.825Z,14.13
2022-10-05T19:15:35.575Z,14.13
2022-10-05T19:18:21.753Z,14.06
2022-10-05T19:20:57.241Z,14.03
2022-10-05T19:23:48.902Z,13.98
2022-10-05T19:26:21.918Z,13.98
2022-10-05T19:29:09.357Z,13.98
2022-10-05T19:31:45.394Z,13.97
2022-10-05T19:34:32.820Z,13.89
2022-10-05T19:37:09.982Z,13.89
2022-10-05T19:39:42.407Z,13.90
2022-10-05T19:42:15.091Z,13.86
2022-10-05T19:45:25.857Z,13.86
2022-10-05T19:48:22.238Z,13.78
2022-10-05T19:50:58.229Z,13.69
2022-10-05T19:53:37.476Z,13.66
2022-10-05T19:56:20.158Z,13.62
2022-10-05T19:58:48.487Z,13.58
2022-10-05T20:01:38.913Z,13.57
2022-10-05T20:04:06.911Z,13.52
2022-10-05T20:06:37.477Z,13.56
2022-10-05T20:09:20.176Z,13.56
2022-10-05T20:11:56.624Z,13.53
2022-10-05T20:14:32.768Z,13.43
2022-10-05T20:17:44.582Z,13.34
2022-10-05T20:20:25.676Z,13.41
2022-10-05T20:22:54.785Z,13.30
2022-10-05T20:25:21.265Z,13.32
2022-10-05T20:27:51.530Z,13.27
2022-10-05T20:30:27.554Z,13.25
2022-10-05T20:33:09.229Z,13.17
2022-10-05T20:35:38.264Z,13.10
2022-10-05T20:38:07.064Z,13.08
2022-10-05T20:40:33.743Z,13.06
2022-10-05T20:43:02.578Z,13.01
2022-10-05T20:45:31.424Z,13.07
2022-10-05T20:48:00.307Z,12.99
2022-10-05T20:50:27.824Z,12.94
2022-10-05T20:52:54.471Z,12.82
2022-10-05T20:55:23.242Z,12.76
2022-10-05T20:57:52.101Z,12.75
2022-10-05T21:00:20.950Z,12.70
2022-10-05T21:02:47.569Z,12.71
2022-10-05T21:05:18.525Z,12.61
2022-10-05T21:07:45.313Z,12.70
2022-10-05T21:10:17.539Z,12.70
2022-10-05T21:12:44.564Z,12.68
2022-10-05T21:15:12.802Z,12.72
2022-10-05T21:17:44.217Z,12.72
2022-10-05T21:20:12.699Z,12.67
2022-10-05T21:22:39.651Z,12.72
2022-10-05T21:25:09.387Z,12.67
2022-10-05T21:27:35.921Z,12.59
2022-10-05T21:30:02.485Z,12.52
2022-10-05T21:32:31.570Z,12.48
2022-10-05T21:34:58.117Z,12.53
2022-10-05T21:37:29.755Z,12.45
2022-10-05T21:39:56.403Z,12.35
2022-10-05T21:42:23.563Z,12.32
2022-10-05T21:44:50.284Z,12.28
2022-10-05T21:47:17.240Z,12.33
2022-10-05T21:49:45.998Z,12.24
2022-10-05T21:52:15.455Z,12.23
2022-10-05T21:54:42.428Z,12.22
2022-10-05T21:57:11.319Z,12.19
2022-10-05T21:59:37.968Z,12.16
2022-10-05T22:02:05.153Z,12.22
2022-10-05T22:04:31.740Z,12.14
2022-10-05T22:06:58.394Z,12.17
2022-10-05T22:09:25.302Z,12.21
2022-10-05T22:11:55.023Z,12.21
2022-10-05T22:14:24.142Z,12.13
2022-10-05T22:16:50.853Z,12.01
2022-10-05T22:19:20.062Z,11.94
2022-10-05T22:21:46.743Z,11.92
2022-10-05T22:24:13.652Z,11.89
2022-10-05T22:26:44.843Z,11.88
2022-10-05T22:29:11.723Z,11.84
2022-10-05T22:31:39.050Z,11.88
2022-10-05T22:34:05.814Z,11.83
2022-10-05T22:36:37.357Z,11.77
2022-10-05T22:39:06.361Z,11.76
2022-10-05T22:41:33.252Z,11.72
2022-10-05T22:44:00.320Z,11.71
2022-10-05T22:46:29.886Z,11.73
2022-10-05T22:48:56.654Z,11.56
2022-10-05T22:51:25.835Z,11.64
2022-10-05T22:53:57.602Z,11.61
2022-10-05T22:56:24.146Z,11.53
2022-10-05T22:58:53.236Z,11.49
2022-10-05T23:01:22.363Z,11.51
2022-10-05T23:03:55.732Z,11.44
2022-10-05T23:06:22.506Z,11.41
2022-10-05T23:08:51.419Z,11.25
2022-10-05T23:11:22.322Z,11.39
2022-10-05T23:13:52.803Z,11.40
2022-10-05T23:16:25.311Z,11.44
2022-10-05T23:18:53.678Z,11.47
2022-10-05T23:21:22.355Z,11.43
2022-10-05T23:23:51.483Z,11.40
2022-10-05T23:26:22.738Z,11.40
2022-10-05T23:28:52.523Z,11.36
2022-10-05T23:31:29.395Z,11.36
2022-10-05T23:33:58.691Z,11.43
2022-10-05T23:36:28.205Z,11.27
2022-10-05T23:38:57.240Z,11.43
2022-10-05T23:41:26.298Z,11.49
2022-10-05T23:43:55.240Z,11.58
2022-10-05T23:46:24.313Z,11.53
2022-10-05T23:48:53.856Z,11.62
2022-10-05T23:51:22.636Z,11.74
2022-10-05T23:53:49.559Z,11.70
2022-10-05T23:56:16.528Z,11.74
2022-10-05T23:58:46.112Z,11.73
